createdAt,value
2022-08-26T00:02:28.205Z,21.27
2022-08-26T00:05:37.179Z,21.21
2022-08-26T00:08:46.840Z,21.15
2022-08-26T00:12:00.587Z,21.07
2022-08-26T00:15:12.110Z,21.01
2022-08-26T00:18:22.162Z,20.98
2022-08-26T00:21:28.787Z,20.99
2022-08-26T00:24:37.802Z,20.95
2022-08-26T00:27:46.857Z,20.91
2022-08-26T00:30:53.248Z,20.86
2022-08-26T00:34:02.269Z,20.93
2022-08-26T00:37:13.420Z,20.92
2022-08-26T00:40:27.717Z,20.89
2022-08-26T00:43:47.443Z,20.92
2022-08-26T00:47:02.018Z,20.93
2022-08-26T00:50:21.176Z,20.95
2022-08-26T00:53:41.485Z,20.94
2022-08-26T00:56:54.356Z,20.94
2022-08-26T01:00:13.565Z,20.90
2022-08-26T01:03:26.693Z,20.84
2022-08-26T01:10:11.971Z,20.78
2022-08-26T01:13:20.635Z,20.72
2022-08-26T01:16:38.595Z,20.64
2022-08-26T01:19:50.249Z,20.62
2022-08-26T01:23:03.232Z,20.61
2022-08-26T01:26:19.670Z,20.60
2022-08-26T01:29:28.508Z,20.55
2022-08-26T01:32:38.994Z,20.44
2022-08-26T01:35:45.671Z,20.41
2022-08-26T01:38:54.623Z,20.36
2022-08-26T01:42:02.967Z,20.38
2022-08-26T01:45:14.120Z,20.33
2022-08-26T01:48:42.920Z,20.32
2022-08-26T01:51:51.710Z,20.33
2022-08-26T01:55:07.866Z,20.31
2022-08-26T01:58:29.259Z,20.29
2022-08-26T02:01:33.353Z,20.28
2022-08-26T02:04:51.213Z,20.22
2022-08-26T02:08:07.287Z,20.28
2022-08-26T02:11:14.619Z,20.26
2022-08-26T02:14:26.736Z,20.24
2022-08-26T02:17:39.897Z,20.22
2022-08-26T02:20:45.343Z,20.20
2022-08-26T02:23:56.162Z,20.17
2022-08-26T02:27:06.047Z,20.14
2022-08-26T02:30:17.191Z,20.13
2022-08-26T02:33:25.707Z,20.11
2022-08-26T02:36:34.666Z,20.08
2022-08-26T02:39:43.146Z,20.08
2022-08-26T02:42:53.138Z,20.05
2022-08-26T02:46:04.181Z,20.01
2022-08-26T02:49:11.548Z,19.99
2022-08-26T02:52:18.247Z,19.96
2022-08-26T02:55:27.258Z,19.94
2022-08-26T02:58:35.081Z,19.89
2022-08-26T03:01:41.610Z,19.84
2022-08-26T03:04:58.080Z,19.84
2022-08-26T03:08:08.240Z,19.76
2022-08-26T03:11:17.024Z,19.72
2022-08-26T03:14:25.848Z,19.69
2022-08-26T03:17:33.248Z,19.69
2022-08-26T03:20:47.600Z,19.65
2022-08-26T03:23:58.934Z,19.64
2022-08-26T03:27:08.583Z,19.58
2022-08-26T03:30:36.407Z,19.50
2022-08-26T03:33:43.486Z,19.47
2022-08-26T03:36:52.926Z,19.48
2022-08-26T03:40:02.157Z,19.46
2022-08-26T03:43:15.161Z,19.38
2022-08-26T03:46:23.534Z,19.37
2022-08-26T03:49:35.796Z,19.32
2022-08-26T03:52:44.054Z,19.29
2022-08-26T03:55:52.044Z,19.23
2022-08-26T03:58:58.527Z,19.22
2022-08-26T04:02:11.317Z,19.21
2022-08-26T04:05:19.239Z,19.23
2022-08-26T04:08:32.099Z,19.23
2022-08-26T04:11:42.618Z,19.22
2022-08-26T04:15:02.103Z,19.18
2022-08-26T04:18:36.913Z,19.18
2022-08-26T04:21:48.996Z,19.17
2022-08-26T04:24:56.846Z,19.15
2022-08-26T04:28:04.241Z,19.15
2022-08-26T04:31:17.576Z,19.15
2022-08-26T04:34:28.723Z,19.13
2022-08-26T04:37:36.761Z,19.11
2022-08-26T04:40:47.126Z,19.10
2022-08-26T04:43:57.200Z,19.12
2022-08-26T04:47:03.630Z,19.12
2022-08-26T04:50:12.686Z,19.12
2022-08-26T04:53:21.101Z,19.17
2022-08-26T04:56:33.541Z,19.21
2022-08-26T04:59:56.266Z,19.23
2022-08-26T05:03:06.299Z,19.27
2022-08-26T05:06:19.245Z,19.30
2022-08-26T05:09:30.588Z,19.33
2022-08-26T05:12:40.481Z,19.36
2022-08-26T05:15:48.918Z,19.43
2022-08-26T05:19:02.646Z,19.49
2022-08-26T05:22:20.385Z,19.58
2022-08-26T05:25:30.252Z,19.68
2022-08-26T05:28:58.098Z,19.74
2022-08-26T05:32:16.059Z,19.83
2022-08-26T05:35:26.408Z,19.88
2022-08-26T05:38:41.269Z,19.95
2022-08-26T05:41:52.658Z,20.05
2022-08-26T05:44:59.540Z,20.19
2022-08-26T05:48:11.030Z,20.27
2022-08-26T05:51:20.136Z,20.33
2022-08-26T05:54:34.709Z,20.43
2022-08-26T05:57:43.534Z,20.48
2022-08-26T06:00:50.925Z,20.52
2022-08-26T06:04:04.731Z,20.52
2022-08-26T06:07:12.494Z,20.50
2022-08-26T06:10:33.373Z,20.52
2022-08-26T06:13:40.866Z,20.56
2022-08-26T06:16:51.138Z,20.60
2022-08-26T06:20:02.038Z,20.66
2022-08-26T06:23:21.003Z,20.67
2022-08-26T06:26:30.438Z,20.68
2022-08-26T06:29:39.329Z,20.75
2022-08-26T06:32:46.818Z,20.82
2022-08-26T06:35:54.570Z,20.90
2022-08-26T06:39:08.621Z,21.01
2022-08-26T06:42:18.774Z,21.20
2022-08-26T06:45:26.987Z,21.58
2022-08-26T06:48:33.567Z,22.16
2022-08-26T06:51:40.982Z,22.51
2022-08-26T06:54:46.918Z,22.57
2022-08-26T06:57:55.444Z,22.52
2022-08-26T07:01:11.421Z,22.44
2022-08-26T07:04:20.250Z,22.39
2022-08-26T07:07:30.493Z,22.41
2022-08-26T07:10:40.988Z,22.42
2022-08-26T07:13:50.532Z,22.48
2022-08-26T07:16:58.270Z,22.56
2022-08-26T07:20:07.980Z,22.65
2022-08-26T07:23:17.318Z,22.67
2022-08-26T07:26:28.553Z,22.69
2022-08-26T07:29:52.151Z,22.65
2022-08-26T07:33:15.035Z,22.64
2022-08-26T07:36:51.918Z,22.63
2022-08-26T07:39:58.993Z,22.64
2022-08-26T07:43:13.027Z,22.69
2022-08-26T07:46:29.897Z,22.68
2022-08-26T07:49:42.090Z,22.72
2022-08-26T07:52:52.964Z,22.81
2022-08-26T07:56:03.613Z,22.88
2022-08-26T07:59:14.084Z,22.93
2022-08-26T08:02:28.832Z,23.04
2022-08-26T08:05:35.625Z,23.14
2022-08-26T08:08:42.530Z,23.30
2022-08-26T08:11:51.297Z,23.60
2022-08-26T08:14:58.038Z,23.97
2022-08-26T08:18:15.728Z,24.35
2022-08-26T08:21:24.319Z,24.77
2022-08-26T08:24:30.949Z,25.17
2022-08-26T08:27:37.993Z,25.55
2022-08-26T08:30:45.033Z,25.96
2022-08-26T08:33:55.641Z,26.32
2022-08-26T08:37:03.042Z,26.68
2022-08-26T08:40:14.823Z,27.00
2022-08-26T08:43:37.690Z,27.39
2022-08-26T08:46:48.097Z,27.61
2022-08-26T08:50:02.764Z,27.82
2022-08-26T08:53:15.902Z,28.07
2022-08-26T08:56:28.175Z,28.28
2022-08-26T08:59:38.393Z,28.48
2022-08-26T09:02:52.106Z,28.58
2022-08-26T09:06:04.205Z,28.78
2022-08-26T09:09:27.615Z,29.00
2022-08-26T09:12:46.637Z,29.23
2022-08-26T09:16:26.213Z,29.40
2022-08-26T09:19:58.373Z,29.15
2022-08-26T09:23:57.377Z,28.91
2022-08-26T09:27:44.185Z,28.78
2022-08-26T09:31:21.075Z,28.74
2022-08-26T09:34:56.862Z,28.66
2022-08-26T09:38:44.802Z,28.75
2022-08-26T09:49:25.893Z,28.71
2022-08-26T09:56:53.628Z,28.94
2022-08-26T10:04:15.107Z,29.54
2022-08-26T10:07:40.898Z,29.88
2022-08-26T10:10:53.332Z,30.15
2022-08-26T10:14:11.868Z,30.40
2022-08-26T10:17:25.948Z,30.62
2022-08-26T10:20:38.110Z,30.85
2022-08-26T10:23:50.344Z,31.01
2022-08-26T10:27:05.373Z,30.77
2022-08-26T10:30:16.254Z,30.30
2022-08-26T10:33:24.462Z,30.08
2022-08-26T10:40:25.395Z,30.69
2022-08-26T10:43:38.732Z,30.99
2022-08-26T10:46:55.497Z,31.20
2022-08-26T10:50:04.201Z,31.45
2022-08-26T10:53:19.686Z,31.60
2022-08-26T10:56:47.085Z,31.77
2022-08-26T11:00:02.016Z,31.74
2022-08-26T11:03:43.750Z,31.91
2022-08-26T11:07:23.384Z,32.02
2022-08-26T11:14:58.438Z,32.27
2022-08-26T11:18:09.024Z,31.98
2022-08-26T11:21:53.109Z,31.76
2022-08-26T11:29:13.314Z,31.83
2022-08-26T11:32:56.228Z,31.38
2022-08-26T11:36:12.416Z,30.98
2022-08-26T11:39:46.820Z,31.20
2022-08-26T11:43:30.278Z,31.61
2022-08-26T11:47:14.346Z,31.87
2022-08-26T11:50:35.540Z,32.25
2022-08-26T11:54:02.124Z,32.51
2022-08-26T11:57:12.401Z,32.79
2022-08-26T12:00:23.793Z,33.05
2022-08-26T12:03:52.205Z,33.09
2022-08-26T12:07:03.998Z,32.54
2022-08-26T12:10:29.566Z,32.21
2022-08-26T12:13:36.515Z,32.37
2022-08-26T12:16:44.081Z,32.72
2022-08-26T12:19:53.673Z,32.96
2022-08-26T12:23:01.811Z,33.25
2022-08-26T12:26:11.175Z,33.52
2022-08-26T12:29:27.552Z,33.28
2022-08-26T12:32:34.313Z,32.76
2022-08-26T12:35:48.469Z,32.34
2022-08-26T12:38:58.717Z,32.03
2022-08-26T12:42:08.655Z,32.20
2022-08-26T12:45:16.741Z,32.44
2022-08-26T12:48:30.299Z,32.10
2022-08-26T12:51:43.173Z,31.82
2022-08-26T12:55:01.679Z,31.59
2022-08-26T12:58:28.087Z,31.32
2022-08-26T13:01:48.829Z,31.02
2022-08-26T13:05:04.042Z,30.77
2022-08-26T13:08:35.970Z,30.60
2022-08-26T13:12:22.496Z,30.44
2022-08-26T13:19:10.245Z,30.62
2022-08-26T13:22:31.231Z,30.87
2022-08-26T13:26:00.222Z,30.80
2022-08-26T13:29:25.362Z,30.50
2022-08-26T13:33:04.502Z,30.31
2022-08-26T13:36:31.963Z,30.37
2022-08-26T13:40:21.624Z,30.56
2022-08-26T13:43:59.441Z,30.91
2022-08-26T13:47:33.286Z,31.18
2022-08-26T13:51:34.839Z,31.38
2022-08-26T13:55:33.246Z,31.57
2022-08-26T13:59:05.621Z,31.53
2022-08-26T14:09:52.406Z,31.35
2022-08-26T14:13:32.730Z,31.28
2022-08-26T14:20:33.618Z,31.32
2022-08-26T14:23:41.101Z,31.41
2022-08-26T14:27:00.974Z,31.51
2022-08-26T14:30:09.236Z,31.77
2022-08-26T14:33:33.487Z,31.90
2022-08-26T14:37:07.683Z,31.89
2022-08-26T14:40:20.825Z,31.79
2022-08-26T14:43:54.109Z,32.02
2022-08-26T14:47:12.639Z,32.06
2022-08-26T14:50:28.170Z,32.11
2022-08-26T14:54:14.484Z,31.93
2022-08-26T15:01:32.980Z,30.69
2022-08-26T15:04:40.396Z,30.21
2022-08-26T15:07:49.276Z,29.82
2022-08-26T15:10:55.752Z,29.59
2022-08-26T15:14:01.849Z,29.48
2022-08-26T15:17:08.696Z,29.27
2022-08-26T15:20:15.989Z,29.06
2022-08-26T15:23:23.533Z,28.98
2022-08-26T15:26:33.417Z,28.92
2022-08-26T15:29:40.434Z,28.80
2022-08-26T15:32:50.169Z,28.63
2022-08-26T15:35:58.603Z,28.48
2022-08-26T15:39:11.101Z,28.16
2022-08-26T15:42:18.143Z,27.56
2022-08-26T15:45:26.250Z,27.03
2022-08-26T15:48:42.193Z,26.51
2022-08-26T15:51:57.795Z,26.12
2022-08-26T15:55:17.414Z,25.78
2022-08-26T15:58:28.875Z,25.18
2022-08-26T16:01:41.209Z,24.55
2022-08-26T16:04:49.054Z,24.03
2022-08-26T16:07:56.956Z,23.66
2022-08-26T16:11:11.227Z,23.41
2022-08-26T16:14:20.756Z,23.23
2022-08-26T16:17:30.901Z,23.07
2022-08-26T16:20:39.214Z,22.84
2022-08-26T16:23:47.327Z,22.72
2022-08-26T16:26:58.599Z,22.66
2022-08-26T16:30:08.458Z,22.60
2022-08-26T16:33:21.578Z,22.57
2022-08-26T16:36:35.828Z,22.44
2022-08-26T16:39:45.043Z,22.28
2022-08-26T16:42:56.092Z,22.32
2022-08-26T16:46:02.602Z,22.23
2022-08-26T16:49:09.022Z,22.21
2022-08-26T16:52:16.515Z,22.17
2022-08-26T16:55:26.199Z,22.10
2022-08-26T16:58:35.294Z,22.02
2022-08-26T17:01:44.911Z,21.92
2022-08-26T17:04:52.333Z,21.90
2022-08-26T17:08:00.769Z,21.83
2022-08-26T17:11:07.610Z,21.83
2022-08-26T17:14:16.258Z,21.83
2022-08-26T17:17:24.722Z,21.77
2022-08-26T17:20:33.434Z,21.69
2022-08-26T17:23:39.967Z,21.66
2022-08-26T17:26:53.539Z,21.67
2022-08-26T17:30:04.387Z,21.73
2022-08-26T17:33:13.135Z,21.72
2022-08-26T17:36:20.095Z,21.56
2022-08-26T17:39:28.412Z,21.43
2022-08-26T17:42:35.196Z,21.21
2022-08-26T17:45:50.470Z,21.08
2022-08-26T17:49:01.009Z,21.09
2022-08-26T17:52:13.624Z,21.10
2022-08-26T17:55:23.302Z,21.09
2022-08-26T17:58:30.692Z,21.12
2022-08-26T18:01:49.238Z,21.13
2022-08-26T18:04:56.534Z,21.13
2022-08-26T18:08:08.358Z,21.14
2022-08-26T18:11:19.625Z,21.17
2022-08-26T18:14:27.115Z,21.08
2022-08-26T18:17:36.147Z,21.09
2022-08-26T18:20:46.269Z,21.05
2022-08-26T18:23:58.894Z,21.01
2022-08-26T18:27:08.006Z,21.01
2022-08-26T18:30:16.900Z,21.05
2022-08-26T18:33:29.083Z,20.99
2022-08-26T18:36:40.963Z,20.98
2022-08-26T18:39:48.004Z,21.01
2022-08-26T18:42:56.817Z,20.98
2022-08-26T18:46:07.526Z,20.94
2022-08-26T18:49:16.296Z,20.93
2022-08-26T18:52:23.483Z,20.94
2022-08-26T18:55:31.061Z,20.99
2022-08-26T18:58:38.124Z,21.00
2022-08-26T19:01:46.393Z,21.01
2022-08-26T19:05:02.105Z,20.98
2022-08-26T19:08:09.007Z,20.88
2022-08-26T19:11:15.728Z,20.90
2022-08-26T19:14:23.042Z,20.89
2022-08-26T19:17:30.620Z,20.90
2022-08-26T19:20:46.533Z,20.88
2022-08-26T19:23:55.377Z,20.91
2022-08-26T19:27:04.061Z,20.92
2022-08-26T19:30:13.396Z,20.87
2022-08-26T19:33:22.333Z,20.86
2022-08-26T19:36:31.771Z,20.84
2022-08-26T19:39:39.879Z,20.82
2022-08-26T19:42:49.220Z,20.77
2022-08-26T19:45:58.489Z,20.73
2022-08-26T19:49:05.797Z,20.69
2022-08-26T19:52:16.831Z,20.69
2022-08-26T19:55:25.040Z,20.70
2022-08-26T19:58:33.308Z,20.66
2022-08-26T20:01:42.286Z,20.64
2022-08-26T20:04:54.840Z,20.59
2022-08-26T20:08:09.173Z,20.58
2022-08-26T20:11:35.415Z,20.57
2022-08-26T20:14:42.690Z,20.55
2022-08-26T20:18:00.425Z,20.54
2022-08-26T20:21:25.119Z,20.50
2022-08-26T20:24:35.586Z,20.49
2022-08-26T20:27:44.654Z,20.52
2022-08-26T20:30:52.824Z,20.51
2022-08-26T20:34:01.014Z,20.50
2022-08-26T20:37:09.116Z,20.50
2022-08-26T20:40:18.953Z,20.45
2022-08-26T20:43:25.066Z,20.49
2022-08-26T20:46:32.154Z,20.44
2022-08-26T20:49:40.382Z,20.45
2022-08-26T20:52:48.662Z,20.47
2022-08-26T20:55:57.004Z,20.44
2022-08-26T20:59:05.851Z,20.46
2022-08-26T21:02:11.578Z,20.49
2022-08-26T21:05:32.566Z,20.47
2022-08-26T21:08:43.454Z,20.46
2022-08-26T21:11:53.333Z,20.49
2022-08-26T21:14:59.631Z,20.50
2022-08-26T21:18:07.157Z,20.51
2022-08-26T21:21:13.853Z,20.47
2022-08-26T21:24:21.747Z,20.42
2022-08-26T21:27:29.771Z,20.40
2022-08-26T21:30:35.966Z,20.42
2022-08-26T21:33:43.877Z,20.40
2022-08-26T21:36:53.078Z,20.42
2022-08-26T21:40:00.431Z,20.42
2022-08-26T21:43:07.762Z,20.45
2022-08-26T21:46:16.285Z,20.42
2022-08-26T21:49:20.828Z,20.41
2022-08-26T21:52:27.874Z,20.45
2022-08-26T21:55:39.078Z,20.46
2022-08-26T21:58:47.081Z,20.42
2022-08-26T22:01:56.455Z,20.36
2022-08-26T22:05:03.840Z,20.36
2022-08-26T22:08:09.946Z,20.39
2022-08-26T22:11:15.536Z,20.38
2022-08-26T22:14:30.846Z,20.40
2022-08-26T22:17:39.791Z,20.41
2022-08-26T22:20:53.073Z,20.39
2022-08-26T22:24:01.073Z,20.42
2022-08-26T22:27:14.677Z,20.45
2022-08-26T22:30:27.871Z,20.42
2022-08-26T22:33:34.901Z,20.42
2022-08-26T22:36:53.353Z,20.46
2022-08-26T22:40:07.728Z,20.49
2022-08-26T22:43:24.747Z,20.50
2022-08-26T22:46:35.101Z,20.53
2022-08-26T22:49:42.145Z,20.52
2022-08-26T22:52:47.382Z,20.54
2022-08-26T22:55:51.982Z,20.59
2022-08-26T22:59:02.119Z,20.60
2022-08-26T23:02:14.247Z,20.62
2022-08-26T23:05:19.551Z,20.63
2022-08-26T23:08:31.548Z,20.66
2022-08-26T23:11:42.364Z,20.72
2022-08-26T23:14:52.278Z,20.68
2022-08-26T23:17:59.826Z,20.68
2022-08-26T23:21:14.787Z,20.66
2022-08-26T23:24:22.787Z,20.67
2022-08-26T23:27:28.257Z,20.65
2022-08-26T23:30:38.847Z,20.66
2022-08-26T23:34:07.258Z,20.68
2022-08-26T23:37:13.365Z,20.70
2022-08-26T23:40:22.087Z,20.74
2022-08-26T23:43:27.220Z,20.73
2022-08-26T23:46:31.366Z,20.74
2022-08-26T23:49:40.348Z,20.75
2022-08-26T23:53:03.331Z,20.76
2022-08-26T23:56:15.368Z,20.75
2022-08-26T23:59:24.599Z,20.74
